logo
Search for airport 
image banner adimage banner adimage banner ad
image banner ad

FAWR - Wavecrest

Located in Wavecrest, South Africa

ICAO - FAWR, IATA -

Data provided by Airmate  

General information

Coordinates: S32°35'24" E28°31'8"
Elevation is 88 feet MSL.
Magnetic variation is -29° East
View others Airports in Eastern Cape

Operational data

Special qualification required
Current time UTC:
Current local time:
Weather at : - ( 0 km )
METAR: PAWM 181017Z AUTO 11008KT 5SM -SN BR BKN010 BKN017 OVC027 01/00 A2991 RMK AO2 FZRANO PNO $
View NOTAMs / SUP AIP / TFR affecting this airport [VIEW]
Communications frequencies: [VIEW]

Runways:

RWY identifierQFULength (ft)Width (ft)SurfaceLDA (ft)
07153°196933GRASS
25333°196933GRASS

Airport contact information

Address: Wavecrest South Africa

Satellite view of FAWR